createdAt,value
2019-02-11T00:04:12.259Z,6.72
2019-02-11T00:09:17.453Z,6.65
2019-02-11T00:14:23.440Z,6.70
2019-02-11T00:19:29.028Z,6.74
2019-02-11T00:24:34.416Z,6.67
2019-02-11T00:29:39.542Z,6.71
2019-02-11T00:34:44.816Z,6.65
2019-02-11T00:39:49.952Z,6.60
2019-02-11T00:44:55.465Z,6.66
2019-02-11T00:50:00.671Z,6.59
2019-02-11T00:55:07.255Z,6.51
2019-02-11T01:00:13.798Z,6.62
2019-02-11T01:05:20.280Z,6.64
2019-02-11T01:10:25.615Z,6.77
2019-02-11T01:15:31.061Z,6.59
2019-02-11T01:20:36.513Z,6.60
2019-02-11T01:25:41.973Z,6.68
2019-02-11T01:30:47.451Z,6.66
2019-02-11T01:35:52.770Z,6.62
2019-02-11T01:40:58.011Z,6.57
2019-02-11T01:46:03.742Z,6.50
2019-02-11T01:51:09.128Z,6.42
2019-02-11T01:56:14.512Z,6.29
2019-02-11T02:01:19.852Z,6.29
2019-02-11T02:06:25.174Z,6.33
2019-02-11T02:11:30.418Z,6.26
2019-02-11T02:16:35.964Z,6.20
2019-02-11T02:21:41.422Z,6.22
2019-02-11T02:26:46.669Z,6.22
2019-02-11T02:31:52.253Z,6.22
2019-02-11T02:36:57.700Z,6.13
2019-02-11T02:42:03.033Z,6.23
2019-02-11T02:47:08.307Z,6.20
2019-02-11T02:52:13.612Z,6.24
2019-02-11T02:57:18.944Z,6.17
2019-02-11T03:02:24.303Z,6.14
2019-02-11T03:07:29.805Z,6.17
2019-02-11T03:12:35.408Z,6.19
2019-02-11T03:17:40.828Z,6.21
2019-02-11T03:22:46.341Z,6.33
2019-02-11T03:27:51.714Z,6.45
2019-02-11T03:32:56.885Z,6.46
2019-02-11T03:38:02.426Z,6.57
2019-02-11T03:43:07.902Z,6.54
2019-02-11T03:48:13.154Z,6.62
2019-02-11T03:53:18.321Z,6.59
2019-02-11T03:58:23.868Z,6.68
2019-02-11T04:03:29.243Z,6.70
2019-02-11T04:08:34.764Z,6.68
2019-02-11T04:13:39.934Z,6.62
2019-02-11T04:18:45.092Z,6.65
2019-02-11T04:23:50.230Z,6.68
2019-02-11T04:28:55.500Z,6.70
2019-02-11T04:34:00.752Z,6.72
2019-02-11T04:39:06.741Z,6.74
2019-02-11T04:44:12.002Z,6.72
2019-02-11T04:49:17.249Z,6.73
2019-02-11T04:54:23.840Z,6.64
2019-02-11T04:59:29.089Z,6.75
2019-02-11T05:04:34.246Z,6.78
2019-02-11T05:09:39.399Z,6.63
2019-02-11T05:14:44.748Z,6.49
2019-02-11T05:19:50.159Z,6.47
2019-02-11T05:24:55.348Z,6.52
2019-02-11T05:30:00.582Z,6.68
2019-02-11T05:35:07.122Z,6.75
2019-02-11T05:40:13.114Z,6.84
2019-02-11T05:45:18.260Z,6.85
2019-02-11T05:50:23.510Z,6.86
2019-02-11T05:55:28.750Z,6.89
2019-02-11T06:00:34.102Z,6.77
2019-02-11T06:05:39.471Z,6.66
2019-02-11T06:10:44.824Z,6.55
2019-02-11T06:15:50.255Z,6.56
2019-02-11T06:20:55.599Z,6.56
2019-02-11T06:26:01.105Z,6.52
2019-02-11T06:31:06.465Z,6.53
2019-02-11T06:36:12.892Z,6.58
2019-02-11T06:41:18.389Z,6.58
2019-02-11T06:46:23.519Z,6.65
2019-02-11T06:51:28.867Z,6.67
2019-02-11T06:56:34.043Z,6.71
2019-02-11T07:01:39.675Z,6.59
2019-02-11T07:06:44.892Z,6.64
2019-02-11T07:11:50.181Z,6.64
2019-02-11T07:16:55.355Z,6.66
2019-02-11T07:22:00.490Z,6.75
2019-02-11T07:27:05.713Z,6.87
2019-02-11T07:32:10.759Z,6.92
2019-02-11T07:37:16.139Z,6.91
2019-02-11T07:42:26.302Z,7.00
2019-02-11T07:47:31.558Z,7.10
2019-02-11T07:52:36.915Z,7.21
2019-02-11T07:57:42.366Z,7.28
2019-02-11T08:02:47.950Z,7.37
2019-02-11T08:07:53.296Z,7.29
2019-02-11T08:12:58.547Z,7.33
2019-02-11T08:18:04.406Z,7.27
2019-02-11T08:23:12.927Z,7.23
2019-02-11T08:28:19.641Z,7.39
2019-02-11T08:33:23.779Z,7.35
2019-02-11T08:38:29.149Z,7.22
2019-02-11T08:43:35.620Z,7.07
2019-02-11T08:48:41.110Z,7.11
2019-02-11T08:53:46.451Z,7.01
2019-02-11T08:58:51.794Z,6.91
2019-02-11T09:03:57.162Z,7.05
2019-02-11T09:09:02.486Z,6.83
2019-02-11T09:14:09.418Z,6.58
2019-02-11T09:19:14.780Z,6.34
2019-02-11T09:24:20.114Z,6.32
2019-02-11T09:29:25.786Z,6.49
2019-02-11T09:34:32.085Z,6.68
2019-02-11T09:39:37.317Z,6.45
2019-02-11T09:44:42.683Z,6.21
2019-02-11T09:49:50.875Z,6.09
2019-02-11T09:54:56.050Z,5.99
2019-02-11T10:00:01.336Z,5.76
2019-02-11T10:05:07.019Z,5.71
2019-02-11T10:10:12.680Z,5.66
2019-02-11T10:15:18.011Z,5.68
2019-02-11T10:20:23.288Z,5.59
2019-02-11T10:25:30.621Z,5.33
2019-02-11T10:30:35.832Z,5.09
2019-02-11T10:35:42.469Z,4.91
2019-02-11T10:40:47.878Z,4.63
2019-02-11T10:45:53.238Z,4.45
2019-02-11T10:50:58.498Z,4.45
2019-02-11T10:56:04.772Z,4.40
2019-02-11T11:01:10.240Z,4.60
2019-02-11T11:06:15.606Z,4.84
2019-02-11T11:11:21.314Z,5.00
2019-02-11T11:16:29.709Z,5.09
2019-02-11T11:21:33.955Z,5.31
2019-02-11T11:26:39.107Z,5.41
2019-02-11T11:31:44.334Z,5.50
2019-02-11T11:36:49.690Z,5.70
2019-02-11T11:41:55.353Z,5.63
2019-02-11T11:47:00.997Z,5.73
2019-02-11T11:52:06.391Z,5.76
2019-02-11T11:57:11.632Z,6.03
2019-02-11T12:02:17.322Z,5.92
2019-02-11T12:07:22.675Z,5.97
2019-02-11T12:12:28.329Z,6.10
2019-02-11T12:17:33.575Z,6.24
2019-02-11T12:22:39.049Z,6.29
2019-02-11T12:27:44.428Z,6.16
2019-02-11T12:32:49.767Z,6.20
2019-02-11T12:37:55.165Z,6.36
2019-02-11T12:43:00.703Z,6.31
2019-02-11T12:48:06.922Z,6.25
2019-02-11T12:53:12.347Z,6.14
2019-02-11T12:58:17.890Z,5.96
2019-02-11T13:03:23.282Z,5.82
2019-02-11T13:08:28.571Z,5.88
2019-02-11T13:13:33.991Z,5.93
2019-02-11T13:18:40.222Z,5.88
2019-02-11T13:23:45.612Z,5.72
2019-02-11T13:28:51.065Z,5.57
2019-02-11T13:33:56.518Z,5.48
2019-02-11T13:39:01.829Z,5.26
2019-02-11T13:44:11.649Z,5.12
2019-02-11T13:49:16.627Z,5.00
2019-02-11T13:54:22.007Z,4.87
2019-02-11T13:59:27.211Z,4.88
2019-02-11T14:04:32.693Z,4.79
2019-02-11T14:09:38.352Z,4.64
2019-02-11T14:14:43.729Z,4.41
2019-02-11T14:19:49.022Z,4.35
2019-02-11T14:24:54.430Z,4.28
2019-02-11T14:29:59.693Z,4.14
2019-02-11T14:35:06.469Z,4.17
2019-02-11T14:40:12.618Z,4.14
2019-02-11T14:45:19.947Z,4.18
2019-02-11T14:50:25.340Z,4.15
2019-02-11T14:55:31.048Z,4.14
2019-02-11T15:00:37.489Z,4.06
2019-02-11T15:05:42.701Z,3.97
2019-02-11T15:10:48.009Z,4.02
2019-02-11T15:15:53.860Z,4.02
2019-02-11T15:20:59.215Z,3.92
2019-02-11T15:26:04.566Z,3.78
2019-02-11T15:31:10.125Z,3.68
2019-02-11T15:36:15.562Z,3.63
2019-02-11T15:41:20.831Z,3.63
2019-02-11T15:46:26.833Z,3.70
2019-02-11T15:51:32.288Z,3.83
2019-02-11T15:56:37.719Z,3.89
2019-02-11T16:01:43.061Z,3.84
2019-02-11T16:06:48.352Z,3.84
2019-02-11T16:11:54.042Z,3.94
2019-02-11T16:16:59.416Z,3.97
2019-02-11T16:22:04.565Z,3.97
2019-02-11T16:27:09.675Z,4.04
2019-02-11T16:32:15.030Z,4.11
2019-02-11T16:37:20.487Z,4.28
2019-02-11T16:42:25.941Z,4.39
2019-02-11T16:47:31.203Z,4.46
2019-02-11T16:52:36.568Z,4.54
2019-02-11T16:57:41.661Z,4.54
2019-02-11T17:02:46.974Z,4.59
2019-02-11T17:07:52.439Z,4.66
2019-02-11T17:12:57.881Z,4.66
2019-02-11T17:18:03.288Z,4.60
2019-02-11T17:23:09.300Z,4.57
2019-02-11T17:28:14.454Z,4.57
2019-02-11T17:33:19.639Z,4.42
2019-02-11T17:38:25.003Z,4.33
2019-02-11T17:43:30.163Z,4.30
2019-02-11T17:48:35.615Z,4.42
2019-02-11T17:53:41.217Z,4.46
2019-02-11T17:58:46.501Z,4.44
2019-02-11T18:03:51.850Z,4.32
2019-02-11T18:08:57.002Z,4.38
2019-02-11T18:14:02.588Z,4.39
2019-02-11T18:19:08.068Z,4.47
2019-02-11T18:24:13.440Z,4.53
2019-02-11T18:29:18.815Z,4.75
2019-02-11T18:34:24.255Z,4.46
2019-02-11T18:39:29.431Z,4.28
2019-02-11T18:44:34.851Z,4.21
2019-02-11T18:49:40.273Z,4.18
2019-02-11T18:54:45.341Z,4.24
2019-02-11T18:59:50.625Z,4.35
2019-02-11T19:04:55.891Z,4.42
2019-02-11T19:10:01.335Z,4.50
2019-02-11T19:15:09.686Z,4.50
2019-02-11T19:20:18.328Z,4.51
2019-02-11T19:25:23.560Z,4.54
2019-02-11T19:30:28.864Z,4.51
2019-02-11T19:35:34.277Z,4.47
2019-02-11T19:40:39.576Z,4.53
2019-02-11T19:45:44.919Z,4.54
2019-02-11T19:50:50.274Z,4.30
2019-02-11T19:55:55.718Z,4.16
2019-02-11T20:01:01.191Z,4.05
2019-02-11T20:06:06.641Z,3.97
2019-02-11T20:11:12.214Z,3.79
2019-02-11T20:16:17.709Z,3.69
2019-02-11T20:21:23.339Z,3.44
2019-02-11T20:26:28.755Z,3.31
2019-02-11T20:31:33.907Z,3.32
2019-02-11T20:36:39.156Z,3.45
2019-02-11T20:41:44.472Z,3.52
2019-02-11T20:46:49.618Z,3.37
2019-02-11T20:51:54.907Z,3.48
2019-02-11T20:57:00.202Z,3.50
2019-02-11T21:02:05.598Z,3.43
2019-02-11T21:07:10.987Z,3.40
2019-02-11T21:12:16.314Z,3.47
2019-02-11T21:17:21.672Z,3.44
2019-02-11T21:22:27.055Z,3.41
2019-02-11T21:27:32.585Z,3.35
2019-02-11T21:32:38.071Z,3.40
2019-02-11T21:37:43.442Z,3.30
2019-02-11T21:42:48.782Z,3.26
2019-02-11T21:47:54.135Z,3.31
2019-02-11T21:53:00.625Z,3.22
2019-02-11T21:58:06.073Z,3.29
2019-02-11T22:03:11.327Z,3.26
2019-02-11T22:08:16.790Z,3.28
2019-02-11T22:13:21.945Z,3.23
2019-02-11T22:18:27.422Z,3.18
2019-02-11T22:23:32.696Z,3.04
2019-02-11T22:28:37.753Z,2.99
2019-02-11T22:33:43.216Z,2.99
2019-02-11T22:38:48.360Z,3.07
2019-02-11T22:43:53.685Z,3.11
2019-02-11T22:48:58.992Z,3.16
2019-02-11T22:54:04.367Z,3.13
2019-02-11T22:59:09.643Z,3.14
2019-02-11T23:04:15.012Z,3.16
2019-02-11T23:09:20.291Z,2.98
2019-02-11T23:14:25.476Z,2.93
2019-02-11T23:19:31.629Z,2.79
2019-02-11T23:24:36.855Z,2.70
2019-02-11T23:29:42.145Z,2.62
2019-02-11T23:34:47.543Z,2.53
2019-02-11T23:39:52.805Z,2.55
2019-02-11T23:44:58.020Z,2.40
2019-02-11T23:50:03.212Z,2.27
2019-02-11T23:55:11.498Z,2.28
